Marl-Loemühle Airfield

EDLM · Rhénanie du Nord-Westphalie, Allemagne

METAR anciennes EDLM · Marl-Loemühle Airfield

Tu vois ci-dessous les METAR des derniers jours. Sélectionne une année pour parcourir les METAR plus anciens, à partir de l'année 2007.

29 novembre 2022

Temps Code Temps Temp. Vue Base cloud Vent METAR/SPECI
14:20
I
9 °C 8 km 900 ft 250° 250° 4 kt METAR EDLW 291320Z 25004KT 220V290 8000 OVC009 09/07 Q1018
13:50
I
8 °C 7 km 900 ft 250° 250° 4 kt METAR EDLW 291250Z 25004KT 230V290 7000 FEW007 OVC009 08/07 Q1018
13:20
I
8 °C 8 km 900 ft 260° 260° 3 kt METAR EDLW 291220Z 26003KT 240V310 8000 OVC009 08/07 Q1018
12:50
I
8 °C 9 km 900 ft Var Var 2 kt METAR EDLW 291150Z VRB02KT 9000 OVC009 08/06 Q1018
12:20
M
8 °C 10 km+ 1.100 ft 250° 250° 4 kt METAR EDLW 291120Z 25004KT 220V290 9999 OVC011 08/07 Q1018
11:50
I
8 °C 10 km+ 800 ft Var 000° 0 kt METAR EDLW 291050Z 00000KT 9999 OVC008 08/07 Q1018
11:20
I
8 °C 9 km 800 ft Var 000° 0 kt METAR EDLW 291020Z 00000KT 9000 OVC008 08/06 Q1018
10:50
I
8 °C 9 km 800 ft Var 000° 0 kt METAR EDLW 290950Z 00000KT 9000 OVC008 08/07 Q1018
10:20
I
7 °C 7 km 900 ft Var Var 1 kt METAR EDLW 290920Z VRB01KT 7000 OVC009 07/07 Q1017
09:50
M
7 °C 7 km 1.200 ft Var Var 2 kt METAR EDLW 290850Z VRB02KT 7000 OVC012 07/07 Q1017
09:20
M
7 °C 6 km 1.100 ft Var Var 2 kt METAR EDLW 290820Z VRB02KT 6000 FEW007 OVC011 07/07 Q1017
08:50
I
7 °C 6 km 700 ft Var Var 1 kt METAR EDLW 290750Z VRB01KT 6000 OVC007 07/07 Q1017
08:20
I
7 °C 6 km 700 ft Var 000° 0 kt METAR EDLW 290720Z 00000KT 6000 FEW004 OVC007 07/07 Q1016
07:50
I
7 °C 6 km 600 ft Var 000° 0 kt METAR EDLW 290650Z 00000KT 6000 OVC006 07/07 Q1016
07:20
I
7 °C 6 km 500 ft Var 000° 0 kt METAR EDLW 290620Z 00000KT 6000 OVC005 07/07 Q1016
06:50
I
7 °C 8 km 600 ft Var 000° 0 kt METAR EDLW 290550Z 00000KT 8000 FEW001 BKN006 07/07 Q1015
06:20
L
8 °C 2,1 km 100 ft Var Var 1 kt METAR EDLW 290520Z VRB01KT 2100 BR BKN001 08/07 Q1015
05:50
L
8 °C 800 m 100 ft Var Var 1 kt METAR EDLW 290450Z VRB01KT 0800 R24/1000N FG OVC001 08/07 Q1015
05:20
L
8 °C 750 m 100 ft 320° 320° 3 kt METAR EDLW 290420Z 32003KT 280V010 0750 R24/0900D FG OVC001 08/07 Q1015
04:50
L
8 °C 1,1 km 100 ft Var Var 2 kt METAR EDLW 290350Z AUTO VRB02KT 1200 1100 R24/1800D // OVC001/// 08/07 Q1014
04:20
L
8 °C 2,2 km 100 ft Var Var 2 kt METAR EDLW 290320Z AUTO VRB02KT 2200 // BKN001/// 08/08 Q1014
03:50
L
8 °C 750 m 100 ft Var Var 1 kt METAR EDLW 290250Z AUTO VRB01KT 1100 0750 R24/0900N // OVC001/// 08/08 Q1014
03:20
L
8 °C 2 km 100 ft Var Var 1 kt METAR EDLW 290220Z AUTO VRB01KT 2000 // BKN001/// 08/08 Q1014
02:50
L
8 °C 1,2 km 100 ft Var 000° 0 kt METAR EDLW 290150Z AUTO 00000KT 1900 1200 R24/1500U // BKN001/// 08/08 Q1014
02:20
L
8 °C 2,4 km 200 ft Var 000° 0 kt METAR EDLW 290120Z AUTO 00000KT 2400 // BKN002/// 08/08 Q1013
01:50
L
8 °C 2,6 km 200 ft Var Var 2 kt METAR EDLW 290050Z AUTO VRB02KT 2600 // BKN002/// 08/08 Q1013
01:20
L
8 °C 2,7 km 200 ft 240° 240° 3 kt METAR EDLW 290020Z AUTO 24003KT 2700 // BKN002/// 08/08 Q1013
00:50
L
8 °C 2,9 km 300 ft 230° 230° 3 kt METAR EDLW 282350Z AUTO 23003KT 2900 // OVC003/// 08/08 Q1013
00:20
L
8 °C 4,5 km 300 ft 220° 220° 4 kt METAR EDLW 282320Z AUTO 22004KT 4500 // BKN003/// 08/08 Q1013

28 novembre 2022

Temps Code Temps Temp. Vue Base cloud Vent METAR/SPECI
23:50
L
8 °C 3 km 400 ft 210° 210° 3 kt METAR EDLW 282250Z AUTO 21003KT 3000 // OVC004/// 08/07 Q1013
23:20
L
8 °C 3,2 km 400 ft 210° 210° 3 kt METAR EDLW 282220Z AUTO 21003KT 160V230 3200 // OVC004/// 08/07 Q1013
22:50
I
8 °C 4,4 km 700 ft 210° 210° 3 kt METAR EDLW 282150Z 21003KT 4400 BR FEW004 OVC007 08/07 Q1013
22:20
I
8 °C 4,2 km 1.300 ft 200° 200° 3 kt METAR EDLW 282120Z 20003KT 4200 BR SCT004 BKN013 OVC021 08/07 Q1013
21:50
I
8 °C 4,5 km 500 ft 210° 210° 4 kt METAR EDLW 282050Z 21004KT 4500 BR OVC005 08/07 Q1013
21:20
I
8 °C 6 km 600 ft 210° 210° 4 kt METAR EDLW 282020Z 21004KT 6000 BKN006 OVC012 08/07 Q1012
20:50
I
8 °C 10 km+ 600 ft 200° 200° 6 kt METAR EDLW 281950Z 20006KT 9999 OVC006 08/07 Q1012
20:20
I
7 °C 10 km+ 700 ft 190° 190° 7 kt METAR EDLW 281920Z 19007KT 9999 BKN007 BKN015 07/07 Q1012
19:50
I
7 °C 10 km+ 900 ft 190° 190° 6 kt METAR EDLW 281850Z 19006KT 9999 BKN009 07/06 Q1012
19:20
I
7 °C 10 km+ 800 ft 190° 190° 7 kt METAR EDLW 281820Z 19007KT 9999 -RA OVC008 07/06 Q1012
18:50
I
7 °C 8 km 800 ft 180° 180° 6 kt METAR EDLW 281750Z 18006KT 8000 -RA OVC008 07/06 Q1012
18:20
M
7 °C 10 km+ 1.000 ft 180° 180° 7 kt METAR EDLW 281720Z 18007KT 9999 -RA OVC010 07/06 Q1012
17:50
M
7 °C 10 km+ 1.000 ft 170° 170° 7 kt METAR EDLW 281650Z 17007KT 9999 -RA BKN010 OVC013 07/06 Q1011
17:20
M
7 °C 10 km+ 1.200 ft 170° 170° 7 kt METAR EDLW 281620Z 17007KT 9999 -RA OVC012 07/06 Q1011
16:50
M
7 °C 10 km+ 1.100 ft 180° 180° 7 kt METAR EDLW 281550Z 18007KT 9999 -RA OVC011 07/05 Q1011
16:20
M
7 °C 10 km+ 1.300 ft 180° 180° 8 kt METAR EDLW 281520Z 18008KT 9999 OVC013 07/05 Q1011
15:50
M
7 °C 10 km+ 1.400 ft 180° 180° 7 kt METAR EDLW 281450Z 18007KT 9999 OVC014 07/05 Q1011
15:20
M
7 °C 10 km+ 1.300 ft 180° 180° 8 kt METAR EDLW 281420Z 18008KT 9999 -RA OVC013 07/05 Q1011
14:50
M
7 °C 10 km+ 1.500 ft 180° 180° 8 kt METAR EDLW 281350Z 18008KT 9999 OVC015 07/05 Q1011
14:20
M
8 °C 10 km+ 1.500 ft 180° 180° 9 kt METAR EDLW 281320Z 18009KT 9999 OVC015 08/05 Q1011
13:50
M
8 °C 10 km+ 1.600 ft 170° 170° 9 kt METAR EDLW 281250Z 17009KT 9999 BKN016 08/05 Q1011
13:20
M
8 °C 10 km+ 1.600 ft 190° 190° 9 kt METAR EDLW 281220Z 19009KT 9999 BKN016 08/05 Q1010
12:50
M
8 °C 10 km+ 1.500 ft 180° 180° 8 kt METAR EDLW 281150Z 18008KT 9999 OVC015 08/05 Q1011
12:20
M
8 °C 10 km+ 1.500 ft 190° 190° 9 kt METAR EDLW 281120Z 19009KT 9999 BKN015 08/05 Q1011
11:50
M
8 °C 10 km+ 1.700 ft 200° 200° 8 kt METAR EDLW 281050Z 20008KT 9999 OVC017 08/04 Q1011
11:20
M
7 °C 10 km+ 1.900 ft 190° 190° 9 kt METAR EDLW 281020Z 19009KT 9999 OVC019 07/04 Q1011
10:50
M
7 °C 10 km+ 2.900 ft 180° 180° 8 kt METAR EDLW 280950Z 18008KT 9999 SCT021 OVC029 07/04 Q1011
10:20
M
8 °C 10 km+ 2.100 ft 180° 180° 7 kt METAR EDLW 280920Z 18007KT 9999 BKN021 08/04 Q1010
09:50
V
7 °C 10 km+ - 150° 150° 5 kt METAR EDLW 280850Z 15005KT 110V180 9999 FEW028 07/03 Q1010
09:20
V
7 °C 10 km+ - 170° 170° 8 kt METAR EDLW 280820Z 17008KT CAVOK 07/03 Q1010
08:50
V
7 °C 10 km+ - 210° 210° 5 kt METAR EDLW 280750Z 21005KT CAVOK 07/03 Q1010
08:20
V
7 °C 10 km+ - 180° 180° 9 kt METAR EDLW 280720Z 18009KT 9999 FEW034 07/03 Q1010
07:50
V
7 °C 10 km+ - 180° 180° 4 kt METAR EDLW 280650Z 18004KT CAVOK 07/03 Q1010
07:20
V
7 °C 10 km+ - 210° 210° 8 kt METAR EDLW 280620Z 21008KT 160V240 9999 SCT045 07/03 Q1010
06:50
V
8 °C 10 km+ - 160° 160° 9 kt METAR EDLW 280550Z 16009KT 9999 FEW030 SCT046 08/03 Q1010
06:20
V
7 °C 10 km+ - 170° 170° 6 kt METAR EDLW 280520Z 17006KT 9999 FEW025 07/03 Q1010
05:50
V
7 °C 10 km+ - 170° 170° 10 kt METAR EDLW 280450Z 17010KT 9999 FEW019 07/03 Q1010
05:20
V
7 °C 10 km+ 4.500 ft 160° 160° 9 kt METAR EDLW 280420Z 16009KT 9999 OVC045 07/03 Q1010
04:50
V
7 °C 10 km+ 4.300 ft 160° 160° 12 kt METAR EDLW 280350Z AUTO 16012KT 9999 // OVC043/// 07/03 Q1010
04:20
V
7 °C 10 km+ 6.000 ft 160° 160° 11 kt METAR EDLW 280320Z AUTO 16011KT 9999 // OVC060/// 07/04 Q1010
03:50
V
7 °C 10 km+ 6.400 ft 160° 160° 10 kt METAR EDLW 280250Z AUTO 16010KT 9999 // FEW046/// OVC064/// 07/04 Q1010
03:20
V
7 °C 10 km+ 6.600 ft 170° 170° 12 kt METAR EDLW 280220Z AUTO 17012KT 9999 // SCT050/// BKN066/// 07/04 Q1010
02:50
V
7 °C 10 km+ 5.200 ft 170° 170° 11 kt METAR EDLW 280150Z AUTO 17011KT 9999 // SCT046/// BKN052/// BKN070/// 07/04 Q1011
02:20
V
7 °C 10 km+ 4.900 ft 170° 170° 10 kt METAR EDLW 280120Z AUTO 17010KT 9999 // BKN049/// 07/04 Q1011
01:50
V
8 °C 10 km+ 4.200 ft 160° 160° 12 kt METAR EDLW 280050Z AUTO 16012KT 9999 // FEW027/// OVC042/// 08/03 Q1011
01:20
V
8 °C 10 km+ 4.900 ft 160° 160° 12 kt METAR EDLW 280020Z AUTO 16012KT 9999 // FEW024/// SCT027/// BKN049/// 08/03 Q1011
00:50
V
7 °C 10 km+ 6.600 ft 160° 160° 9 kt METAR EDLW 272350Z AUTO 16009KT 9999 // SCT026/// SCT057/// BKN066/// 07/03 Q1012
00:20
V
8 °C 10 km+ 6.200 ft 160° 160° 9 kt METAR EDLW 272320Z AUTO 16009KT 9999 // FEW042/// BKN062/// BKN072/// 08/02 Q1012

27 novembre 2022

Temps Code Temps Temp. Vue Base cloud Vent METAR/SPECI
23:50
V
8 °C 10 km+ 5.700 ft 160° 160° 10 kt METAR EDLW 272250Z AUTO 16010KT 9999 // FEW042/// BKN057/// 08/02 Q1012
23:20
V
8 °C 10 km+ 6.300 ft 150° 150° 9 kt METAR EDLW 272220Z AUTO 15009KT 9999 // BKN063/// BKN085/// 08/02 Q1013
22:50
V
8 °C 10 km+ - 180° 180° 6 kt METAR EDLW 272150Z AUTO 18006KT 140V210 9999 // FEW092/// 08/02 Q1013
22:20
V
8 °C 10 km+ - 160° 160° 5 kt METAR EDLW 272120Z AUTO 16005KT 060V200 9999 // SCT079/// 08/02 Q1013
21:50
V
7 °C 10 km+ 7.100 ft 160° 160° 6 kt METAR EDLW 272050Z AUTO 16006KT 130V190 9999 // FEW055/// BKN071/// 07/03 Q1014
21:20
V
8 °C 10 km+ - 130° 130° 10 kt METAR EDLW 272020Z 13010KT 110V170 9999 -RA FEW036 08/02 Q1014
20:50
V
7 °C 10 km+ - 120° 120° 9 kt METAR EDLW 271950Z 12009KT 9999 -RA FEW035 07/03 Q1014
20:20
V
8 °C 10 km+ - 140° 140° 10 kt METAR EDLW 271920Z 14010KT 9999 FEW035 08/02 Q1015
19:50
V
8 °C 10 km+ - 150° 150° 9 kt METAR EDLW 271850Z 15009KT CAVOK 08/02 Q1015
19:20
V
8 °C 10 km+ - 150° 150° 10 kt METAR EDLW 271820Z 15010KT 9999 -RA FEW043 08/02 Q1015
18:50
V
8 °C 10 km+ 4.800 ft 150° 150° 11 kt METAR EDLW 271750Z 15011KT 9999 -RA OVC048 08/02 Q1016
18:20
V
8 °C 10 km+ - 150° 150° 9 kt METAR EDLW 271720Z 15009KT 9999 FEW024 08/02 Q1016
17:50
V
8 °C 10 km+ - 160° 160° 10 kt METAR EDLW 271650Z 16010KT 9999 FEW029 08/02 Q1017
17:20
V
8 °C 10 km+ - 180° 180° 7 kt METAR EDLW 271620Z 18007KT 140V220 9999 FEW024 08/02 Q1017
16:50
V
9 °C 10 km+ - 150° 150° 10 kt METAR EDLW 271550Z 15010KT 9999 FEW018 09/01 Q1017
16:20
V
9 °C 10 km+ - 200° 200° 5 kt METAR EDLW 271520Z 20005KT 150V230 CAVOK 09/00 Q1018
15:50
V
10 °C 10 km+ - 180° 180° 5 kt METAR EDLW 271450Z 18005KT 140V220 CAVOK 10/00 Q1018
15:20
V
10 °C 10 km+ - 150° 150° 8 kt METAR EDLW 271420Z 15008KT 120V220 CAVOK 10/01 Q1018
14:50
V
10 °C 10 km+ - 140° 140° 10 kt METAR EDLW 271350Z 14010KT CAVOK 10/00 Q1018
14:20
V
10 °C 10 km+ - 160° 160° 6 kt METAR EDLW 271320Z 16006KT 130V210 CAVOK 10/01 Q1019
13:50
V
10 °C 10 km+ - 160° 160° 9 kt METAR EDLW 271250Z 16009KT CAVOK 10/01 Q1019
13:20
V
10 °C 10 km+ - Var Var 4 kt METAR EDLW 271220Z VRB04KT CAVOK 10/01 Q1020
12:50
V
10 °C 10 km+ - 190° 190° 4 kt METAR EDLW 271150Z 19004KT 150V230 CAVOK 10/01 Q1020
12:20
V
10 °C 10 km+ - Var Var 3 kt METAR EDLW 271120Z VRB03KT CAVOK 10/02 Q1021
11:50
V
9 °C 10 km+ - Var Var 4 kt METAR EDLW 271050Z VRB04KT CAVOK 09/01 Q1021
11:20
V
9 °C 10 km+ - 210° 210° 5 kt METAR EDLW 271020Z 21005KT 140V280 CAVOK 09/01 Q1021
10:50
V
9 °C 10 km+ - 160° 160° 13 kt METAR EDLW 270950Z 16013KT CAVOK 09/02 Q1021

Nous et des tiers suivons ton comportement Internet sur notre site Web à l'aide de cookies. Si tu continues, nous supposons que tu es d'accord avec notre Politique en matière de cookies.